Time;durP1;ratioP1;P1;durP2;ratioP2;P2;SDS_P1;SDS_P2;PMS_P1;PMS_P2;Temp;Humidity;BMP_temperature;BMP_pressure;BME280_temperature;BME280_humidity;BME280_pressure;Samples;Min_cycle;Max_cycle;Signal;HPM_P1;HPM_P2
2022/11/23 00:01:32;;;;;;;22.08;11.30;;;;;;;-143.48;93.25;77710.75;5051266;28;20032;-30
2022/11/23 00:04:00;;;;;;;23.55;12.00;;;;;;;-143.48;93.62;77710.75;5052446;28;20033;-30
2022/11/23 00:06:26;;;;;;;21.50;11.80;;;;;;;-143.48;93.39;77708.78;5052753;28;20095;-30
2022/11/23 00:08:52;;;;;;;23.25;12.50;;;;;;;-143.48;93.45;77712.75;5052629;28;20052;-30
2022/11/23 00:11:19;;;;;;;20.63;11.95;;;;;;;-143.48;93.57;77702.84;5053235;28;20411;-30
2022/11/23 00:13:45;;;;;;;24.33;12.68;;;;;;;-143.48;93.13;77700.84;5053332;28;20079;-30
2022/11/23 00:16:17;;;;;;;20.60;11.90;;;;;;;-143.48;92.96;77706.78;5053315;28;20024;-30
2022/11/23 00:18:43;;;;;;;21.42;12.35;;;;;;;-143.48;93.14;77718.69;5053693;28;20048;-30
2022/11/23 00:21:16;;;;;;;21.23;12.27;;;;;;;-143.48;93.43;77724.63;5053640;28;20045;-30
2022/11/23 00:23:44;;;;;;;24.58;12.20;;;;;;;-143.48;93.17;77716.72;5052903;28;20410;-30
2022/11/23 00:26:11;;;;;;;20.38;12.15;;;;;;;-143.48;93.05;77728.59;5053649;28;20025;-30
2022/11/23 00:28:39;;;;;;;25.65;13.00;;;;;;;-143.48;93.06;77716.72;5034775;28;20025;-30
2022/11/23 00:31:06;;;;;;;25.67;12.57;;;;;;;-143.48;92.99;77714.72;5053203;28;20150;-30
2022/11/23 00:33:31;;;;;;;25.80;13.13;;;;;;;-143.48;92.78;77730.59;5053603;28;20032;-30
2022/11/23 00:36:01;;;;;;;26.20;14.02;;;;;;;-143.48;92.55;77724.63;5053401;28;20460;-30
2022/11/23 00:38:27;;;;;;;28.40;13.98;;;;;;;-143.48;92.41;77734.56;5053182;28;20021;-30
2022/11/23 00:41:10;;;;;;;31.30;14.63;;;;;;;-143.48;92.50;77718.69;5053107;28;20025;-30
2022/11/23 00:43:36;;;;;;;27.52;14.70;;;;;;;-143.48;92.16;77742.50;5053017;28;20025;-30
2022/11/23 00:46:09;;;;;;;29.13;14.13;;;;;;;-143.48;92.61;77734.56;5052575;28;20035;-31
2022/11/23 00:48:35;;;;;;;31.60;14.38;;;;;;;-143.48;92.47;77738.53;5051665;28;20071;-30
2022/11/23 00:51:02;;;;;;;26.80;14.18;;;;;;;-143.48;92.52;77736.53;5052544;28;20029;-31
2022/11/23 00:53:27;;;;;;;26.98;14.40;;;;;;;-143.48;92.88;77742.50;5052645;28;20079;-30
2022/11/23 00:55:54;;;;;;;27.23;14.18;;;;;;;-143.48;92.88;77752.41;5052773;28;20417;-30
2022/11/23 00:58:20;;;;;;;30.63;15.13;;;;;;;-143.48;92.76;77736.53;5052294;28;20505;-30
2022/11/23 01:00:46;;;;;;;22.75;13.98;;;;;;;-143.48;92.52;77742.50;5052811;28;20021;-30
2022/11/23 01:03:11;;;;;;;31.02;14.38;;;;;;;-143.48;92.93;77736.53;5053173;28;20028;-30
2022/11/23 01:05:37;;;;;;;25.92;14.30;;;;;;;-143.48;92.79;77760.34;5053271;28;20036;-30
2022/11/23 01:08:04;;;;;;;30.05;14.75;;;;;;;-143.48;92.83;77742.50;5053406;28;20485;-30
2022/11/23 01:10:29;;;;;;;27.15;14.77;;;;;;;-143.48;92.78;77756.38;5035755;28;20032;-30
2022/11/23 01:12:55;;;;;;;28.38;13.85;;;;;;;-143.48;93.47;77764.31;5053170;28;20052;-30
2022/11/23 01:15:20;;;;;;;26.40;13.70;;;;;;;-143.48;93.45;77776.19;5056208;28;20078;-30
2022/11/23 01:17:45;;;;;;;30.60;13.35;;;;;;;-143.48;93.23;77762.31;5056873;28;20119;-30
2022/11/23 01:20:11;;;;;;;29.27;13.70;;;;;;;-143.48;93.40;77774.22;5056531;28;20048;-30
2022/11/23 01:22:36;;;;;;;29.77;14.30;;;;;;;-143.48;93.20;77776.19;5057047;28;20085;-30
2022/11/23 01:25:01;;;;;;;26.73;13.85;;;;;;;-143.48;92.99;77780.16;5057291;28;20029;-30
2022/11/23 01:27:26;;;;;;;30.30;13.48;;;;;;;-143.48;93.19;77776.19;5056955;28;20058;-30
2022/11/23 01:29:52;;;;;;;24.13;13.45;;;;;;;-143.48;93.27;77776.19;5056641;28;20043;-30
2022/11/23 01:32:17;;;;;;;30.38;13.80;;;;;;;-143.48;92.81;77770.25;5056552;28;20051;-30
2022/11/23 01:34:42;;;;;;;24.63;13.77;;;;;;;-143.48;92.79;77780.16;5057386;28;20036;-30
2022/11/23 01:37:07;;;;;;;29.80;14.00;;;;;;;-143.48;92.86;77776.19;5056806;28;20017;-30
2022/11/23 01:39:33;;;;;;;34.28;14.35;;;;;;;-143.48;93.30;77774.22;5056745;28;20070;-31
2022/11/23 01:41:58;;;;;;;28.27;13.35;;;;;;;-143.48;93.16;77776.19;5056319;28;20443;-30
2022/11/23 01:44:30;;;;;;;27.75;13.63;;;;;;;-143.48;93.21;77762.31;5056675;28;20027;-30
2022/11/23 01:47:06;;;;;;;24.33;12.75;;;;;;;-143.48;92.77;77770.25;5056347;28;20146;-31
2022/11/23 01:49:37;;;;;;;27.15;13.55;;;;;;;-143.48;93.28;77778.19;5056525;28;20028;-30
2022/11/23 01:52:08;;;;;;;30.50;14.02;;;;;;;-143.48;93.33;77790.06;5056486;28;20029;-30
2022/11/23 01:54:42;;;;;;;26.90;14.25;;;;;;;-143.48;93.40;77784.13;5056153;28;20025;-31
2022/11/23 01:57:18;;;;;;;31.35;14.70;;;;;;;-143.48;93.41;77788.09;5056144;28;20029;-31
2022/11/23 01:59:44;;;;;;;27.42;14.18;;;;;;;-143.48;93.76;77782.16;5056271;28;20025;-30
2022/11/23 02:02:09;;;;;;;30.33;13.80;;;;;;;-143.48;92.94;77778.19;5056053;28;20024;-30
2022/11/23 02:04:39;;;;;;;26.30;13.93;;;;;;;-143.48;93.32;77780.16;5056162;28;20027;-30
2022/11/23 02:07:05;;;;;;;29.13;13.48;;;;;;;-143.48;93.55;77786.13;5056206;28;20032;-29
2022/11/23 02:09:33;;;;;;;27.40;13.50;;;;;;;-143.48;93.28;77786.13;5056183;28;20111;-30
2022/11/23 02:12:00;;;;;;;28.60;12.90;;;;;;;-143.48;93.54;77788.09;5056404;28;20021;-30
2022/11/23 02:14:25;;;;;;;23.45;13.18;;;;;;;-143.48;93.69;77790.06;5055956;28;20071;-30
2022/11/23 02:16:51;;;;;;;27.50;13.15;;;;;;;-143.48;93.50;77782.16;5056056;28;20028;-30
2022/11/23 02:19:43;;;;;;;25.60;13.13;;;;;;;-143.48;93.32;77784.13;5055902;28;20032;-31
2022/11/23 02:22:18;;;;;;;24.70;12.20;;;;;;;-143.48;93.46;77788.09;5055998;28;20037;-30
2022/11/23 02:24:51;;;;;;;29.95;11.93;;;;;;;-143.48;93.82;77782.16;5055107;28;20056;-30
2022/11/23 02:27:16;;;;;;;20.90;11.38;;;;;;;-143.48;93.43;77786.13;5056157;28;20048;-30
2022/11/23 02:29:41;;;;;;;24.17;12.05;;;;;;;-143.48;93.66;77796.03;5055801;28;20025;-30
2022/11/23 02:32:07;;;;;;;27.25;11.95;;;;;;;-143.48;93.70;77792.06;5055447;28;20021;-30
2022/11/23 02:34:33;;;;;;;30.45;11.98;;;;;;;-143.48;93.93;77790.06;5055405;28;20025;-29
2022/11/23 02:36:58;;;;;;;24.50;11.20;;;;;;;-143.48;93.82;77801.97;5055235;28;20361;-30
2022/11/23 02:39:33;;;;;;;23.63;10.60;;;;;;;-143.48;94.44;77805.94;5055327;28;20029;-29
2022/11/23 02:41:59;;;;;;;21.40;11.18;;;;;;;-143.48;94.31;77801.97;5055727;28;20029;-30
2022/11/23 02:44:41;;;;;;;20.35;10.27;;;;;;;-143.48;94.33;77801.97;5055546;28;20032;-30
2022/11/23 02:47:08;;;;;;;24.25;10.98;;;;;;;-143.48;94.43;77801.97;5055457;28;20375;-29
2022/11/23 02:49:33;;;;;;;24.88;11.77;;;;;;;-143.48;94.33;77803.97;5055472;28;20116;-30
2022/11/23 02:51:59;;;;;;;22.40;10.88;;;;;;;-143.48;94.00;77811.88;5055141;28;20048;-30
2022/11/23 02:54:25;;;;;;;24.77;11.07;;;;;;;-143.48;94.34;77807.94;5055666;28;20033;-30
2022/11/23 02:56:50;;;;;;;23.30;11.02;;;;;;;-143.48;93.91;77805.94;5055116;28;20021;-30
2022/11/23 02:59:15;;;;;;;29.15;10.30;;;;;;;-143.48;94.41;77829.75;5055708;28;20075;-30
2022/11/23 03:01:41;;;;;;;23.00;10.50;;;;;;;-143.48;94.67;77823.78;5054878;28;20178;-30
2022/11/23 03:04:07;;;;;;;19.65;9.98;;;;;;;-143.48;94.29;77829.75;5055188;28;20029;-30
2022/11/23 03:06:32;;;;;;;22.48;10.60;;;;;;;-143.48;94.11;77819.81;5054908;28;20029;-30
2022/11/23 03:08:57;;;;;;;20.73;10.30;;;;;;;-143.48;94.33;77815.84;5054748;28;20025;-30
2022/11/23 03:11:23;;;;;;;24.00;10.55;;;;;;;-143.48;94.28;77829.75;5055305;28;20017;-30
2022/11/23 03:13:48;;;;;;;21.15;10.25;;;;;;;-143.48;94.22;77817.84;5054661;28;20036;-29
2022/11/23 03:16:13;;;;;;;29.80;10.77;;;;;;;-143.48;93.48;77819.81;5054922;28;20031;-30
2022/11/23 03:18:39;;;;;;;22.25;10.80;;;;;;;-143.48;93.38;77825.78;5055165;28;20028;-30
2022/11/23 03:21:08;;;;;;;22.08;11.02;;;;;;;-143.48;93.48;77829.75;5054370;28;20065;-30
2022/11/23 03:23:35;;;;;;;25.33;11.90;;;;;;;-143.48;92.95;77823.78;5054553;28;20415;-30
2022/11/23 03:26:00;;;;;;;26.02;11.32;;;;;;;-143.48;92.97;77825.78;5054532;28;20024;-29
2022/11/23 03:28:26;;;;;;;24.10;11.48;;;;;;;-143.48;92.91;77831.72;5036549;28;20025;-30
2022/11/23 03:30:52;;;;;;;26.85;12.27;;;;;;;-143.48;92.19;77831.72;5054337;28;20032;-29
2022/11/23 03:33:17;;;;;;;24.48;12.23;;;;;;;-143.48;92.40;77835.69;5054628;28;20032;-29
2022/11/23 03:35:43;;;;;;;23.85;11.88;;;;;;;-143.48;92.05;77829.75;5054150;28;20107;-30
2022/11/23 03:38:08;;;;;;;24.52;12.23;;;;;;;-143.48;91.97;77839.66;5053837;28;20021;-30
2022/11/23 03:40:33;;;;;;;25.35;12.80;;;;;;;-143.48;92.32;77841.63;5054366;28;20025;-30
2022/11/23 03:42:59;;;;;;;26.00;13.10;;;;;;;-143.48;91.31;77843.63;5054142;28;20380;-30
2022/11/23 03:45:24;;;;;;;25.65;12.20;;;;;;;-143.48;91.18;77835.69;5054397;28;20036;-29
2022/11/23 03:47:49;;;;;;;20.90;12.50;;;;;;;-143.48;90.97;77833.69;5054569;28;20029;-30
2022/11/23 03:50:15;;;;;;;21.27;12.20;;;;;;;-143.48;90.35;77833.69;5054030;28;20084;-30
2022/11/23 03:52:40;;;;;;;21.05;11.73;;;;;;;-143.48;90.12;77831.72;5054247;28;20032;-29
2022/11/23 03:55:06;;;;;;;25.60;12.85;;;;;;;-143.48;90.67;77839.66;5054421;28;20110;-29
2022/11/23 03:57:32;;;;;;;23.70;12.02;;;;;;;-143.48;89.91;77825.78;5054197;28;20028;-30
2022/11/23 03:59:57;;;;;;;26.88;12.50;;;;;;;-143.48;90.44;77825.78;5053325;28;20022;-30
2022/11/23 04:02:22;;;;;;;20.33;11.65;;;;;;;-143.48;90.27;77831.72;5053322;28;20511;-30
2022/11/23 04:04:47;;;;;;;18.15;10.70;;;;;;;-143.48;90.71;77829.75;5053172;28;20025;-29
2022/11/23 04:07:13;;;;;;;17.40;10.07;;;;;;;-143.48;90.66;77835.69;5053294;28;20476;-30
2022/11/23 04:09:38;;;;;;;26.05;10.95;;;;;;;-143.48;90.94;77833.69;5053174;28;20027;-30
2022/11/23 04:12:04;;;;;;;19.65;9.82;;;;;;;-143.48;90.56;77827.75;5052981;28;20020;-30
2022/11/23 04:14:29;;;;;;;19.55;9.75;;;;;;;-143.48;90.51;77829.75;5053478;28;20384;-30
2022/11/23 04:16:54;;;;;;;21.30;10.30;;;;;;;-143.48;90.15;77825.78;5053455;28;20071;-30
2022/11/23 04:19:20;;;;;;;24.83;10.30;;;;;;;-143.48;90.81;77825.78;5053575;28;20029;-30
2022/11/23 04:21:45;;;;;;;18.42;9.27;;;;;;;-143.48;90.48;77831.72;5053691;28;20061;-29
2022/11/23 04:24:11;;;;;;;17.75;9.38;;;;;;;-143.48;90.30;77833.69;5053464;28;20025;-30
2022/11/23 04:26:36;;;;;;;17.02;9.25;;;;;;;-143.48;90.78;77839.66;5053532;28;20020;-30
2022/11/23 04:29:01;;;;;;;15.93;9.40;;;;;;;-143.48;90.24;77829.75;5035509;28;20029;-29
2022/11/23 04:31:27;;;;;;;23.35;9.48;;;;;;;-143.48;89.99;77829.75;5053350;28;20017;-30
2022/11/23 04:33:54;;;;;;;18.67;9.55;;;;;;;-143.48;90.16;77829.75;5053574;28;20044;-30
2022/11/23 04:36:20;;;;;;;17.45;9.07;;;;;;;-143.48;90.57;77825.78;5053500;28;20099;-29
2022/11/23 04:38:45;;;;;;;17.05;8.93;;;;;;;-143.48;90.50;77839.66;5053238;28;20412;-29
2022/11/23 04:41:11;;;;;;;18.17;8.93;;;;;;;-143.48;90.53;77831.72;5053184;28;20017;-29
2022/11/23 04:43:36;;;;;;;15.85;9.02;;;;;;;-143.48;90.92;77831.72;5053199;28;20078;-30
2022/11/23 04:46:01;;;;;;;22.75;9.45;;;;;;;-143.48;90.69;77837.66;5054007;28;20108;-29
2022/11/23 04:48:26;;;;;;;18.73;9.38;;;;;;;-143.48;90.52;77827.75;5052756;28;20070;-34
2022/11/23 04:50:52;;;;;;;17.25;9.23;;;;;;;-143.48;90.38;77831.72;5053408;28;20038;-30
2022/11/23 04:53:17;;;;;;;13.88;8.18;;;;;;;-143.48;90.23;77827.75;5053383;28;20483;-30
2022/11/23 04:55:43;;;;;;;17.45;8.60;;;;;;;-143.48;90.14;77815.84;5053377;28;20021;-30
2022/11/23 04:58:08;;;;;;;14.75;8.40;;;;;;;-143.48;89.65;77823.78;5052950;28;20491;-30
2022/11/23 05:00:33;;;;;;;18.85;8.32;;;;;;;-143.48;90.21;77825.78;5053175;28;20063;-30
2022/11/23 05:03:02;;;;;;;15.57;8.10;;;;;;;-143.48;90.12;77825.78;5053224;28;20032;-30
2022/11/23 05:05:28;;;;;;;17.95;8.18;;;;;;;-143.48;89.72;77827.75;5035063;28;20036;-30
2022/11/23 05:07:54;;;;;;;18.35;7.70;;;;;;;-143.48;90.21;77833.69;5053270;28;20021;-30
2022/11/23 05:10:19;;;;;;;12.70;8.02;;;;;;;-143.48;90.66;77829.75;5053555;28;20468;-30
2022/11/23 05:12:44;;;;;;;15.88;7.07;;;;;;;-143.48;90.10;77825.78;5052883;28;20022;-30
2022/11/23 05:15:13;;;;;;;14.77;7.68;;;;;;;-143.48;90.34;77825.78;5052851;28;20024;-30
2022/11/23 05:17:38;;;;;;;17.45;8.05;;;;;;;-143.48;89.73;77825.78;5052815;28;20029;-30
2022/11/23 05:20:04;;;;;;;18.45;7.47;;;;;;;-143.48;90.43;77835.69;5052780;28;20095;-31
2022/11/23 05:22:29;;;;;;;17.42;7.80;;;;;;;-143.48;90.50;77831.72;5052932;28;20017;-30
2022/11/23 05:24:54;;;;;;;18.92;7.68;;;;;;;-143.48;90.23;77839.66;5052787;28;20104;-30
2022/11/23 05:27:20;;;;;;;16.15;7.28;;;;;;;-143.48;90.69;77839.66;5053035;28;20021;-30
2022/11/23 05:29:45;;;;;;;15.07;7.40;;;;;;;-143.48;90.27;77841.63;5052698;28;20518;-30
2022/11/23 05:32:10;;;;;;;16.63;7.55;;;;;;;-143.48;90.84;77851.56;5052926;28;20044;-30
2022/11/23 05:34:35;;;;;;;15.95;7.68;;;;;;;-143.48;90.88;77841.63;5052873;28;20032;-30
2022/11/23 05:37:01;;;;;;;13.02;7.10;;;;;;;-143.48;90.61;77843.63;5052913;28;20495;-30
2022/11/23 05:39:26;;;;;;;15.73;7.68;;;;;;;-143.48;89.99;77845.59;5052579;28;20472;-30
2022/11/23 05:41:52;;;;;;;11.75;6.65;;;;;;;-143.48;90.63;77849.56;5034844;28;20021;-30
2022/11/23 05:44:17;;;;;;;25.30;7.38;;;;;;;-143.48;90.58;77851.56;5052580;28;20029;-31
2022/11/23 05:46:42;;;;;;;17.42;7.75;;;;;;;-143.48;90.30;77853.53;5052992;28;20016;-30
2022/11/23 05:49:09;;;;;;;20.17;7.65;;;;;;;-143.48;90.46;77857.50;5052532;28;20188;-30
2022/11/23 05:51:34;;;;;;;15.48;7.18;;;;;;;-143.48;89.75;77849.56;5053059;28;20028;-30
2022/11/23 05:54:00;;;;;;;14.02;6.72;;;;;;;-143.48;89.65;77853.53;5052721;28;20025;-31
2022/11/23 05:56:26;;;;;;;15.00;7.13;;;;;;;-143.48;89.91;77853.53;5052447;28;20039;-30
2022/11/23 05:58:53;;;;;;;14.05;7.13;;;;;;;-143.48;89.42;77847.59;5052781;28;20384;-30
2022/11/23 06:01:18;;;;;;;22.17;7.75;;;;;;;-143.48;89.15;77841.63;5055497;28;20021;-30
2022/11/23 06:03:43;;;;;;;18.95;7.72;;;;;;;-143.48;89.30;77853.53;5056034;28;20112;-30
2022/11/23 06:06:09;;;;;;;25.55;8.30;;;;;;;-143.48;88.56;77855.50;5055911;28;20032;-30
2022/11/23 06:08:35;;;;;;;19.27;7.18;;;;;;;-143.48;88.40;77839.66;5056110;28;20020;-30
2022/11/23 06:11:00;;;;;;;20.65;7.28;;;;;;;-143.48;88.22;77843.63;5056504;28;20035;-30
2022/11/23 06:13:26;;;;;;;16.45;7.65;;;;;;;-143.48;87.96;77845.59;5056085;28;20025;-30
2022/11/23 06:15:51;;;;;;;20.20;7.13;;;;;;;-143.48;87.73;77839.66;5055750;28;20419;-30
2022/11/23 06:18:16;;;;;;;19.50;7.75;;;;;;;-143.48;87.65;77843.63;5055892;28;20028;-30
2022/11/23 06:20:42;;;;;;;14.52;6.93;;;;;;;-143.48;87.81;77843.63;5055347;28;20103;-30
2022/11/23 06:23:07;;;;;;;18.02;6.97;;;;;;;-143.48;87.47;77855.50;5055687;28;20460;-30
2022/11/23 06:25:32;;;;;;;19.17;7.75;;;;;;;-143.48;87.67;77853.53;5055912;28;20070;-30
2022/11/23 06:27:59;;;;;;;16.30;6.80;;;;;;;-143.48;87.34;77853.53;5055547;28;20047;-30
2022/11/23 06:30:27;;;;;;;15.32;7.05;;;;;;;-143.48;87.79;77855.50;5055565;28;20021;-30
2022/11/23 06:32:53;;;;;;;15.65;7.15;;;;;;;-143.48;86.79;77841.63;5056486;28;20021;-30
2022/11/23 06:35:18;;;;;;;17.23;7.30;;;;;;;-143.48;86.74;77839.66;5055728;28;20036;-30
2022/11/23 06:37:44;;;;;;;20.00;7.35;;;;;;;-143.48;87.00;77851.56;5055845;28;20029;-31
2022/11/23 06:40:11;;;;;;;19.75;7.45;;;;;;;-143.48;86.63;77833.69;5056084;28;20348;-33
2022/11/23 06:42:36;;;;;;;19.95;7.10;;;;;;;-143.48;86.52;77831.72;5055355;28;20032;-30
2022/11/23 06:45:02;;;;;;;22.58;8.43;;;;;;;-143.48;86.66;77833.69;5055549;28;20024;-30
2022/11/23 06:47:28;;;;;;;19.15;7.25;;;;;;;-143.48;87.25;77843.63;5055133;28;20090;-30
2022/11/23 06:49:53;;;;;;;17.15;7.75;;;;;;;-143.48;87.34;77843.63;5054942;28;20029;-30
2022/11/23 06:52:18;;;;;;;16.52;7.15;;;;;;;-143.48;87.31;77847.59;5055416;28;20025;-30
2022/11/23 06:54:45;;;;;;;21.40;7.78;;;;;;;-143.48;87.24;77853.53;5055434;28;20108;-30
2022/11/23 06:57:11;;;;;;;16.02;6.85;;;;;;;-143.48;87.13;77851.56;5020927;28;20025;-30
2022/11/23 06:59:37;;;;;;;15.38;6.70;;;;;;;-143.48;87.60;77859.47;5037114;28;20136;-30
2022/11/23 07:02:03;;;;;;;20.88;7.22;;;;;;;-143.48;87.44;77877.31;5037205;28;20444;-30
2022/11/23 07:04:29;;;;;;;18.95;6.93;;;;;;;-143.48;87.10;77893.19;5037238;28;20099;-30
2022/11/23 07:06:54;;;;;;;20.17;6.15;;;;;;;-143.48;87.63;77887.25;5055152;28;20060;-30
2022/11/23 07:09:19;;;;;;;18.13;6.45;;;;;;;-143.48;87.27;77881.28;5054733;28;20128;-30
2022/11/23 07:11:45;;;;;;;17.60;6.55;;;;;;;-143.48;86.37;77879.31;5054476;28;20021;-30
2022/11/23 07:14:10;;;;;;;19.25;6.28;;;;;;;-143.48;87.04;77889.22;5054229;28;20048;-30
2022/11/23 07:16:36;;;;;;;16.42;5.55;;;;;;;-143.48;86.52;77893.19;5053183;28;20025;-30
2022/11/23 07:19:01;;;;;;;20.48;6.70;;;;;;;-143.48;86.41;77901.13;5054452;28;20021;-30
2022/11/23 07:21:26;;;;;;;18.90;5.32;;;;;;;-143.48;86.84;77905.09;5054341;28;20059;-30
2022/11/23 07:23:52;;;;;;;25.02;5.60;;;;;;;-143.48;86.04;77907.06;5053707;28;20021;-30
2022/11/23 07:26:17;;;;;;;13.13;5.20;;;;;;;-143.48;86.08;77907.06;5052645;28;20024;-30
2022/11/23 07:28:42;;;;;;;15.18;4.40;;;;;;;-143.48;86.06;77926.91;5052302;28;20033;-30
2022/11/23 07:31:08;;;;;;;17.00;4.80;;;;;;;-143.48;85.75;77938.81;5051452;28;20036;-30
2022/11/23 07:33:33;;;;;;;18.83;3.75;;;;;;;-143.48;85.81;77946.72;5051899;28;20024;-30
2022/11/23 07:36:02;;;;;;;18.90;3.35;;;;;;;-143.48;85.15;77956.66;5053554;28;20024;-31
2022/11/23 07:38:28;;;;;;;14.15;3.50;;;;;;;-143.48;84.92;77948.72;5053459;28;20021;-30
2022/11/23 07:40:53;;;;;;;14.77;3.03;;;;;;;-143.48;85.18;77944.75;5054311;28;20033;-30
2022/11/23 07:43:19;;;;;;;19.65;3.30;;;;;;;-143.48;84.79;77940.78;5054095;28;20062;-30
2022/11/23 07:45:44;;;;;;;16.27;3.25;;;;;;;-143.48;84.91;77970.53;5053969;28;20037;-30
2022/11/23 07:48:11;;;;;;;11.38;3.20;;;;;;;-143.48;84.26;77968.53;5054318;28;20025;-30
2022/11/23 07:50:38;;;;;;;17.20;3.30;;;;;;;-143.48;84.26;77954.66;5054252;28;20024;-30
2022/11/23 07:53:05;;;;;;;11.57;2.92;;;;;;;-143.48;84.21;77958.63;5053964;28;20016;-30
2022/11/23 07:55:31;;;;;;;16.55;2.83;;;;;;;-143.48;84.26;77960.63;5053766;28;20060;-30
2022/11/23 07:57:56;;;;;;;19.42;2.83;;;;;;;-143.48;84.36;77956.66;5053885;28;20025;-31
2022/11/23 08:00:24;;;;;;;13.65;2.60;;;;;;;-143.48;84.34;77968.53;5053622;28;20032;-30
2022/11/23 08:02:49;;;;;;;12.48;2.65;;;;;;;-143.48;84.60;77960.63;5054049;28;20469;-30
2022/11/23 08:05:15;;;;;;;12.48;2.55;;;;;;;-143.48;84.52;77960.63;5053956;28;20024;-30
2022/11/23 08:07:40;;;;;;;13.25;2.58;;;;;;;-143.48;84.42;77968.53;5053617;28;20443;-30
2022/11/23 08:10:07;;;;;;;16.33;2.85;;;;;;;-143.48;84.34;77958.63;5053635;28;20021;-30
2022/11/23 08:12:32;;;;;;;14.90;2.90;;;;;;;-143.48;85.25;77968.53;5053116;28;20108;-30
2022/11/23 08:14:58;;;;;;;19.20;2.83;;;;;;;-143.48;84.22;77956.66;5053306;28;20451;-30
2022/11/23 08:17:23;;;;;;;20.35;2.97;;;;;;;-143.48;84.19;77958.63;5035610;28;20020;-30
2022/11/23 08:19:49;;;;;;;18.17;3.63;;;;;;;-143.48;84.64;77950.69;5034397;28;20053;-30
2022/11/23 08:22:14;;;;;;;14.82;2.70;;;;;;;-143.48;84.98;77964.56;5052545;28;20472;-30
2022/11/23 08:24:39;;;;;;;17.60;3.63;;;;;;;-143.48;84.79;77946.72;5053641;28;20021;-30
2022/11/23 08:27:05;;;;;;;17.85;2.75;;;;;;;-143.48;85.21;77964.56;5035454;28;20380;-30
2022/11/23 08:29:30;;;;;;;13.38;3.40;;;;;;;-143.48;85.24;77956.66;5053535;28;20082;-30
2022/11/23 08:31:55;;;;;;;13.98;2.97;;;;;;;-143.48;84.67;77946.72;5053505;28;20024;-30
2022/11/23 08:34:21;;;;;;;16.02;3.17;;;;;;;-143.48;84.42;77934.84;5052569;28;20032;-30
2022/11/23 08:36:47;;;;;;;18.05;3.28;;;;;;;-143.48;84.30;77903.09;5051253;28;20027;-30
2022/11/23 08:39:13;;;;;;;18.75;3.17;;;;;;;-143.48;83.58;77883.28;5051401;28;20025;-30
2022/11/23 08:41:42;;;;;;;14.20;2.60;;;;;;;-143.48;83.08;77881.28;5051204;28;20025;-35
2022/11/23 08:44:09;;;;;;;18.85;2.67;;;;;;;-143.48;83.28;77887.25;5033259;28;20068;-30
2022/11/23 08:46:35;;;;;;;18.95;3.30;;;;;;;-143.48;83.66;77891.22;5050629;28;20029;-30
2022/11/23 08:49:01;;;;;;;17.30;2.90;;;;;;;-143.48;84.13;77895.19;5051407;28;20081;-30
2022/11/23 08:51:32;;;;;;;20.23;3.95;;;;;;;-143.48;84.45;77909.06;5053059;28;20024;-30
2022/11/23 08:53:58;;;;;;;17.27;3.50;;;;;;;-143.48;84.78;77911.03;5035348;28;20028;-30
2022/11/23 08:56:23;;;;;;;17.33;2.95;;;;;;;-143.48;85.09;77917.00;5053649;28;20051;-29
2022/11/23 08:58:49;;;;;;;19.15;3.50;;;;;;;-143.48;85.57;77909.06;5053792;28;20029;-30
2022/11/23 09:01:16;;;;;;;19.98;2.95;;;;;;;-143.48;85.14;77913.03;5053195;28;20343;-30
2022/11/23 09:03:41;;;;;;;15.43;2.65;;;;;;;-143.48;84.79;77920.94;5052897;28;20024;-30
2022/11/23 09:06:07;;;;;;;16.77;2.83;;;;;;;-143.48;84.21;77897.16;5052897;28;20456;-30
2022/11/23 09:08:33;;;;;;;17.27;2.83;;;;;;;-143.48;83.90;77897.16;5052934;28;20033;-29
2022/11/23 09:11:04;;;;;;;12.85;2.65;;;;;;;-143.48;83.46;77901.13;5052190;28;20460;-30
2022/11/23 09:13:30;;;;;;;21.65;2.83;;;;;;;-143.48;83.06;77893.19;5052586;28;20425;-30
2022/11/23 09:16:00;;;;;;;18.60;3.50;;;;;;;-143.48;82.81;77881.28;5052904;28;20032;-30
2022/11/23 09:18:27;;;;;;;17.77;2.92;;;;;;;-143.48;82.26;77869.41;5052818;28;20519;-30
2022/11/23 09:20:53;;;;;;;12.60;2.28;;;;;;;-143.48;81.98;77883.28;5052869;28;20037;-30
2022/11/23 09:23:18;;;;;;;17.13;2.70;;;;;;;-143.48;81.91;77891.22;5053537;28;20036;-30
2022/11/23 09:25:47;;;;;;;13.30;2.53;;;;;;;-143.48;81.97;77869.41;5053316;28;20028;-30
2022/11/23 09:28:13;;;;;;;21.95;3.83;;;;;;;-143.48;80.14;77839.66;5052654;28;20117;-30
2022/11/23 09:30:55;;;;;;;18.83;3.08;;;;;;;-143.48;79.32;77833.69;5034892;28;20107;-30
2022/11/23 09:33:21;;;;;;;18.75;3.13;;;;;;;-143.48;77.73;77760.34;5035315;28;20025;-30
2022/11/23 09:35:55;;;;;;;18.15;2.80;;;;;;;-143.48;76.54;77738.53;5054974;28;20468;-30
2022/11/23 09:38:20;;;;;;;12.50;2.58;;;;;;;-143.48;76.85;77770.25;5056501;28;20394;-30
2022/11/23 09:40:51;;;;;;;22.15;3.35;;;;;;;-143.48;76.73;77776.19;5056566;28;20080;-31
2022/11/23 09:43:58;;;;;;;13.75;2.70;;;;;;;-143.48;71.77;77587.81;5056716;28;20036;-30
2022/11/23 09:46:54;;;;;;;18.00;2.80;;;;;;;-143.48;60.73;77336.00;5048602;28;20029;-30
2022/11/23 09:49:26;;;;;;;17.65;3.15;;;;;;;-143.48;56.96;77223.00;5056597;28;20025;-30
2022/11/23 09:51:54;;;;;;;16.45;3.33;;;;;;;-143.48;52.15;77048.53;5056436;28;20028;-30
2022/11/23 09:54:28;;;;;;;14.90;3.40;;;;;;;-143.48;50.94;77006.91;5056232;28;20032;-31
2022/11/23 09:56:55;;;;;;;12.20;2.97;;;;;;;-143.48;50.74;77040.59;5056709;28;20025;-30
2022/11/23 09:59:35;;;;;;;13.65;3.22;;;;;;;-143.48;48.01;76991.03;5056937;28;20033;-31
2022/11/23 10:02:07;;;;;;;14.23;2.95;;;;;;;-143.48;49.17;77046.56;5056656;28;20075;-31
2022/11/23 10:04:34;;;;;;;12.23;3.20;;;;;;;-143.48;46.67;76899.84;5056378;28;20499;-30
2022/11/23 10:07:25;;;;;;;11.18;2.97;;;;;;;-143.48;46.23;76947.41;5056057;28;20075;-30
2022/11/23 10:10:06;;;;;;;14.35;3.58;;;;;;;-143.48;44.62;76814.59;5038073;28;20463;-30
2022/11/23 10:12:52;;;;;;;11.45;2.97;;;;;;;-143.48;44.34;76842.34;5056011;28;20104;-30
2022/11/23 10:15:49;;;;;;;9.85;2.80;;;;;;;-143.48;43.51;76753.16;5037739;28;20032;-30
2022/11/23 10:18:41;;;;;;;10.68;3.08;;;;;;;-143.48;44.18;76899.84;5055928;28;20039;-30
2022/11/23 10:21:21;;;;;;;10.90;2.63;;;;;;;-143.48;44.55;76931.56;5055596;28;20057;-30
2022/11/23 10:23:54;;;;;;;13.45;3.00;;;;;;;-143.48;45.18;76868.13;5055670;28;20078;-30
2022/11/23 10:26:31;;;;;;;10.02;3.17;;;;;;;-143.48;46.04;76981.13;5055937;28;20132;-30
2022/11/23 10:29:01;;;;;;;12.52;2.47;;;;;;;-143.48;44.39;76882.00;5055628;28;20021;-31
2022/11/23 10:31:27;;;;;;;14.88;2.97;;;;;;;-143.48;45.73;76967.25;5056068;28;20052;-30
2022/11/23 10:34:11;;;;;;;13.60;3.20;;;;;;;-143.48;45.97;77022.75;5055832;28;20384;-31
2022/11/23 10:36:37;;;;;;;18.30;3.00;;;;;;;-143.48;45.57;76969.22;5055779;28;20388;-30
2022/11/23 10:39:15;;;;;;;15.93;3.33;;;;;;;-143.48;45.01;76917.69;5055495;28;20029;-30
2022/11/23 10:41:40;;;;;;;14.75;3.42;;;;;;;-143.48;44.29;76866.13;5055511;28;20112;-30
2022/11/23 10:44:18;;;;;;;12.93;3.10;;;;;;;-143.48;45.56;77012.84;5055918;28;20064;-30
2022/11/23 10:46:44;;;;;;;11.90;2.95;;;;;;;-143.48;45.14;76975.19;5037290;28;20091;-29
2022/11/23 10:49:19;;;;;;;11.95;2.92;;;;;;;-143.48;44.05;76897.84;5037066;28;20025;-30
2022/11/23 10:51:54;;;;;;;15.65;3.72;;;;;;;-143.48;51.77;77290.41;5054670;28;20048;-30
2022/11/23 10:54:56;;;;;;;13.50;3.30;;;;;;;-143.48;59.06;77575.94;5055425;28;20044;-29
2022/11/23 10:57:41;;;;;;;13.93;2.87;;;;;;;-143.48;61.71;77593.78;5027458;28;20091;-29
2022/11/23 11:00:12;;;;;;;16.48;3.00;;;;;;;-143.48;61.59;77560.06;5055217;28;20099;-30
2022/11/23 11:02:40;;;;;;;15.70;3.20;;;;;;;-143.48;60.73;77506.53;5054720;28;20025;-30
2022/11/23 11:05:32;;;;;;;16.67;3.72;;;;;;;-143.48;58.74;77433.16;5055123;28;20383;-29
2022/11/23 11:08:00;;;;;;;17.15;3.03;;;;;;;-143.48;57.32;77486.69;5055357;28;20355;-30
2022/11/23 11:10:39;;;;;;;19.63;3.45;;;;;;;-143.48;46.83;76874.06;5054810;28;20048;-29